sensor_id;sensor_type;location;lat;lon;timestamp;P1;durP1;ratioP1;P2;durP2;ratioP2
21543;SDS011;10933;50.754;11.508;2023-05-21T00:00:35;22.27;;;20.65;;
21543;SDS011;10933;50.754;11.508;2023-05-21T00:03:01;24.25;;;22.20;;
21543;SDS011;10933;50.754;11.508;2023-05-21T00:05:27;23.85;;;21.55;;
21543;SDS011;10933;50.754;11.508;2023-05-21T00:07:54;21.33;;;19.77;;
21543;SDS011;10933;50.754;11.508;2023-05-21T00:10:20;22.50;;;20.85;;
21543;SDS011;10933;50.754;11.508;2023-05-21T00:12:46;23.02;;;21.02;;
21543;SDS011;10933;50.754;11.508;2023-05-21T00:15:12;22.70;;;20.98;;
21543;SDS011;10933;50.754;11.508;2023-05-21T00:17:38;22.42;;;20.63;;
21543;SDS011;10933;50.754;11.508;2023-05-21T00:20:04;22.77;;;20.88;;
21543;SDS011;10933;50.754;11.508;2023-05-21T00:22:32;22.52;;;20.80;;
21543;SDS011;10933;50.754;11.508;2023-05-21T00:25:00;23.52;;;21.40;;
21543;SDS011;10933;50.754;11.508;2023-05-21T00:27:26;21.73;;;20.23;;
21543;SDS011;10933;50.754;11.508;2023-05-21T00:29:52;22.45;;;20.95;;
21543;SDS011;10933;50.754;11.508;2023-05-21T00:32:18;22.30;;;20.70;;
21543;SDS011;10933;50.754;11.508;2023-05-21T00:34:45;23.10;;;20.92;;
21543;SDS011;10933;50.754;11.508;2023-05-21T00:37:11;22.52;;;20.83;;
21543;SDS011;10933;50.754;11.508;2023-05-21T00:39:39;20.88;;;19.60;;
21543;SDS011;10933;50.754;11.508;2023-05-21T00:42:05;21.60;;;20.13;;
21543;SDS011;10933;50.754;11.508;2023-05-21T00:44:31;21.95;;;19.83;;
21543;SDS011;10933;50.754;11.508;2023-05-21T00:47:01;24.35;;;22.05;;
21543;SDS011;10933;50.754;11.508;2023-05-21T00:49:28;22.58;;;21.17;;
21543;SDS011;10933;50.754;11.508;2023-05-21T00:51:55;21.70;;;20.10;;
21543;SDS011;10933;50.754;11.508;2023-05-21T00:54:22;22.85;;;20.70;;
21543;SDS011;10933;50.754;11.508;2023-05-21T00:56:49;23.70;;;21.63;;
21543;SDS011;10933;50.754;11.508;2023-05-21T00:59:16;24.25;;;22.38;;
21543;SDS011;10933;50.754;11.508;2023-05-21T01:01:43;22.20;;;20.42;;
21543;SDS011;10933;50.754;11.508;2023-05-21T01:04:09;22.33;;;20.48;;
21543;SDS011;10933;50.754;11.508;2023-05-21T01:06:37;23.35;;;21.67;;
21543;SDS011;10933;50.754;11.508;2023-05-21T01:09:03;22.13;;;20.52;;
21543;SDS011;10933;50.754;11.508;2023-05-21T01:14:05;24.45;;;22.08;;
21543;SDS011;10933;50.754;11.508;2023-05-21T01:16:34;23.90;;;21.67;;
21543;SDS011;10933;50.754;11.508;2023-05-21T01:19:02;24.48;;;22.27;;
21543;SDS011;10933;50.754;11.508;2023-05-21T01:21:29;24.00;;;22.00;;
21543;SDS011;10933;50.754;11.508;2023-05-21T01:23:59;25.02;;;22.90;;
21543;SDS011;10933;50.754;11.508;2023-05-21T01:26:29;24.00;;;21.90;;
21543;SDS011;10933;50.754;11.508;2023-05-21T01:28:57;26.60;;;24.10;;
21543;SDS011;10933;50.754;11.508;2023-05-21T01:31:27;26.08;;;23.67;;
21543;SDS011;10933;50.754;11.508;2023-05-21T01:34:01;25.90;;;23.58;;
21543;SDS011;10933;50.754;11.508;2023-05-21T01:36:37;24.63;;;22.35;;
21543;SDS011;10933;50.754;11.508;2023-05-21T01:42:07;25.23;;;22.65;;
21543;SDS011;10933;50.754;11.508;2023-05-21T01:44:35;25.05;;;22.85;;
21543;SDS011;10933;50.754;11.508;2023-05-21T01:47:03;24.40;;;22.30;;
21543;SDS011;10933;50.754;11.508;2023-05-21T01:49:30;25.13;;;22.98;;
21543;SDS011;10933;50.754;11.508;2023-05-21T01:51:57;26.13;;;23.77;;
21543;SDS011;10933;50.754;11.508;2023-05-21T01:54:23;26.48;;;23.73;;
21543;SDS011;10933;50.754;11.508;2023-05-21T01:56:49;27.15;;;24.17;;
21543;SDS011;10933;50.754;11.508;2023-05-21T01:59:16;24.33;;;22.42;;
21543;SDS011;10933;50.754;11.508;2023-05-21T02:01:42;24.93;;;22.83;;
21543;SDS011;10933;50.754;11.508;2023-05-21T02:04:08;31.47;;;22.93;;
21543;SDS011;10933;50.754;11.508;2023-05-21T02:06:34;23.77;;;21.70;;
21543;SDS011;10933;50.754;11.508;2023-05-21T02:09:03;25.40;;;22.87;;
21543;SDS011;10933;50.754;11.508;2023-05-21T02:11:29;24.83;;;22.77;;
21543;SDS011;10933;50.754;11.508;2023-05-21T02:13:56;24.67;;;22.33;;
21543;SDS011;10933;50.754;11.508;2023-05-21T02:16:22;23.63;;;21.80;;
21543;SDS011;10933;50.754;11.508;2023-05-21T02:18:49;24.40;;;22.23;;
21543;SDS011;10933;50.754;11.508;2023-05-21T02:21:17;24.08;;;22.08;;
21543;SDS011;10933;50.754;11.508;2023-05-21T02:23:44;24.33;;;22.33;;
21543;SDS011;10933;50.754;11.508;2023-05-21T02:26:10;24.45;;;22.45;;
21543;SDS011;10933;50.754;11.508;2023-05-21T02:28:37;24.02;;;22.17;;
21543;SDS011;10933;50.754;11.508;2023-05-21T02:31:04;24.73;;;22.48;;
21543;SDS011;10933;50.754;11.508;2023-05-21T02:33:30;23.15;;;21.42;;
21543;SDS011;10933;50.754;11.508;2023-05-21T02:35:56;22.38;;;20.88;;
21543;SDS011;10933;50.754;11.508;2023-05-21T02:38:22;23.63;;;21.58;;
21543;SDS011;10933;50.754;11.508;2023-05-21T02:40:49;22.77;;;20.98;;
21543;SDS011;10933;50.754;11.508;2023-05-21T02:43:16;22.73;;;21.03;;
21543;SDS011;10933;50.754;11.508;2023-05-21T02:45:42;23.20;;;21.47;;
21543;SDS011;10933;50.754;11.508;2023-05-21T02:48:08;23.05;;;21.23;;
21543;SDS011;10933;50.754;11.508;2023-05-21T02:50:35;23.52;;;21.60;;
21543;SDS011;10933;50.754;11.508;2023-05-21T02:53:01;23.58;;;21.45;;
21543;SDS011;10933;50.754;11.508;2023-05-21T02:55:28;23.42;;;21.60;;
21543;SDS011;10933;50.754;11.508;2023-05-21T02:57:54;22.40;;;20.27;;
21543;SDS011;10933;50.754;11.508;2023-05-21T03:00:20;24.27;;;21.65;;
21543;SDS011;10933;50.754;11.508;2023-05-21T03:02:46;23.02;;;21.13;;
21543;SDS011;10933;50.754;11.508;2023-05-21T03:05:12;21.38;;;19.75;;
21543;SDS011;10933;50.754;11.508;2023-05-21T03:07:39;22.17;;;20.67;;
21543;SDS011;10933;50.754;11.508;2023-05-21T03:10:06;23.00;;;21.05;;
21543;SDS011;10933;50.754;11.508;2023-05-21T03:12:32;22.52;;;20.85;;
21543;SDS011;10933;50.754;11.508;2023-05-21T03:14:59;22.88;;;20.85;;
21543;SDS011;10933;50.754;11.508;2023-05-21T03:17:25;23.60;;;21.13;;
21543;SDS011;10933;50.754;11.508;2023-05-21T03:19:51;22.40;;;20.90;;
21543;SDS011;10933;50.754;11.508;2023-05-21T03:22:18;22.37;;;20.47;;
21543;SDS011;10933;50.754;11.508;2023-05-21T03:24:45;21.48;;;19.80;;
21543;SDS011;10933;50.754;11.508;2023-05-21T03:27:11;21.67;;;19.53;;
21543;SDS011;10933;50.754;11.508;2023-05-21T03:29:37;22.60;;;20.73;;
21543;SDS011;10933;50.754;11.508;2023-05-21T03:32:04;21.83;;;20.37;;
21543;SDS011;10933;50.754;11.508;2023-05-21T03:34:30;22.60;;;20.60;;
21543;SDS011;10933;50.754;11.508;2023-05-21T03:36:58;21.95;;;20.33;;
21543;SDS011;10933;50.754;11.508;2023-05-21T03:39:24;21.90;;;20.38;;
21543;SDS011;10933;50.754;11.508;2023-05-21T03:41:50;21.87;;;20.43;;
21543;SDS011;10933;50.754;11.508;2023-05-21T03:44:16;21.15;;;19.85;;
21543;SDS011;10933;50.754;11.508;2023-05-21T03:46:43;23.33;;;21.35;;
21543;SDS011;10933;50.754;11.508;2023-05-21T03:49:10;23.10;;;21.13;;
21543;SDS011;10933;50.754;11.508;2023-05-21T03:51:36;22.27;;;20.77;;
21543;SDS011;10933;50.754;11.508;2023-05-21T03:54:03;23.00;;;21.30;;
21543;SDS011;10933;50.754;11.508;2023-05-21T03:56:29;24.65;;;21.52;;
21543;SDS011;10933;50.754;11.508;2023-05-21T03:58:55;22.10;;;20.37;;
21543;SDS011;10933;50.754;11.508;2023-05-21T04:01:22;22.88;;;20.98;;
21543;SDS011;10933;50.754;11.508;2023-05-21T04:03:48;22.67;;;20.95;;
21543;SDS011;10933;50.754;11.508;2023-05-21T04:06:15;22.17;;;20.58;;
21543;SDS011;10933;50.754;11.508;2023-05-21T04:08:42;21.50;;;20.10;;
21543;SDS011;10933;50.754;11.508;2023-05-21T04:11:09;24.05;;;21.77;;
21543;SDS011;10933;50.754;11.508;2023-05-21T04:13:35;23.33;;;21.13;;
21543;SDS011;10933;50.754;11.508;2023-05-21T04:16:02;23.27;;;20.98;;
21543;SDS011;10933;50.754;11.508;2023-05-21T04:18:28;24.52;;;22.83;;
21543;SDS011;10933;50.754;11.508;2023-05-21T04:20:54;22.95;;;21.30;;
21543;SDS011;10933;50.754;11.508;2023-05-21T04:23:20;23.52;;;21.23;;
21543;SDS011;10933;50.754;11.508;2023-05-21T04:25:47;22.52;;;21.00;;
21543;SDS011;10933;50.754;11.508;2023-05-21T04:28:14;23.67;;;21.75;;
21543;SDS011;10933;50.754;11.508;2023-05-21T04:30:43;23.42;;;21.48;;
21543;SDS011;10933;50.754;11.508;2023-05-21T04:33:13;23.60;;;21.60;;
21543;SDS011;10933;50.754;11.508;2023-05-21T04:35:49;23.45;;;21.75;;
21543;SDS011;10933;50.754;11.508;2023-05-21T04:38:16;23.08;;;21.30;;
21543;SDS011;10933;50.754;11.508;2023-05-21T04:40:46;23.60;;;21.85;;
21543;SDS011;10933;50.754;11.508;2023-05-21T04:43:15;22.60;;;20.80;;
21543;SDS011;10933;50.754;11.508;2023-05-21T04:45:41;22.40;;;20.85;;
21543;SDS011;10933;50.754;11.508;2023-05-21T04:48:08;22.67;;;21.08;;
21543;SDS011;10933;50.754;11.508;2023-05-21T04:50:34;22.25;;;20.83;;
21543;SDS011;10933;50.754;11.508;2023-05-21T04:53:00;23.67;;;21.40;;
21543;SDS011;10933;50.754;11.508;2023-05-21T04:55:27;22.58;;;20.98;;
21543;SDS011;10933;50.754;11.508;2023-05-21T04:57:53;22.80;;;21.10;;
21543;SDS011;10933;50.754;11.508;2023-05-21T05:00:20;22.63;;;20.90;;
21543;SDS011;10933;50.754;11.508;2023-05-21T05:02:46;23.40;;;21.70;;
21543;SDS011;10933;50.754;11.508;2023-05-21T05:05:12;22.42;;;20.75;;
21543;SDS011;10933;50.754;11.508;2023-05-21T05:07:38;22.70;;;20.70;;
21543;SDS011;10933;50.754;11.508;2023-05-21T05:10:05;20.67;;;19.58;;
21543;SDS011;10933;50.754;11.508;2023-05-21T05:12:31;20.17;;;19.08;;
21543;SDS011;10933;50.754;11.508;2023-05-21T05:14:57;19.52;;;18.52;;
21543;SDS011;10933;50.754;11.508;2023-05-21T05:17:23;20.25;;;18.92;;
21543;SDS011;10933;50.754;11.508;2023-05-21T05:19:50;21.08;;;19.33;;
21543;SDS011;10933;50.754;11.508;2023-05-21T05:22:17;19.42;;;18.40;;
21543;SDS011;10933;50.754;11.508;2023-05-21T05:24:43;21.10;;;19.67;;
21543;SDS011;10933;50.754;11.508;2023-05-21T05:27:09;20.67;;;19.40;;
21543;SDS011;10933;50.754;11.508;2023-05-21T05:29:35;21.45;;;19.73;;
21543;SDS011;10933;50.754;11.508;2023-05-21T05:32:01;20.75;;;19.63;;
21543;SDS011;10933;50.754;11.508;2023-05-21T05:34:27;21.10;;;19.58;;
21543;SDS011;10933;50.754;11.508;2023-05-21T05:36:53;20.08;;;19.02;;
21543;SDS011;10933;50.754;11.508;2023-05-21T05:39:21;19.30;;;17.92;;
21543;SDS011;10933;50.754;11.508;2023-05-21T05:41:47;19.75;;;18.30;;
21543;SDS011;10933;50.754;11.508;2023-05-21T05:44:13;18.58;;;17.67;;
21543;SDS011;10933;50.754;11.508;2023-05-21T05:46:39;18.77;;;17.77;;
21543;SDS011;10933;50.754;11.508;2023-05-21T05:49:05;19.27;;;18.27;;
21543;SDS011;10933;50.754;11.508;2023-05-21T05:51:31;19.05;;;17.30;;
21543;SDS011;10933;50.754;11.508;2023-05-21T05:53:58;19.42;;;17.95;;
21543;SDS011;10933;50.754;11.508;2023-05-21T05:56:24;18.60;;;17.70;;
21543;SDS011;10933;50.754;11.508;2023-05-21T05:58:50;18.73;;;17.63;;
21543;SDS011;10933;50.754;11.508;2023-05-21T06:01:17;18.77;;;17.80;;
21543;SDS011;10933;50.754;11.508;2023-05-21T06:03:44;18.52;;;17.58;;
21543;SDS011;10933;50.754;11.508;2023-05-21T06:06:11;19.55;;;18.25;;
21543;SDS011;10933;50.754;11.508;2023-05-21T06:08:37;19.20;;;18.23;;
21543;SDS011;10933;50.754;11.508;2023-05-21T06:11:04;19.20;;;17.70;;
21543;SDS011;10933;50.754;11.508;2023-05-21T06:13:30;18.27;;;17.35;;
21543;SDS011;10933;50.754;11.508;2023-05-21T06:15:56;18.10;;;17.10;;
21543;SDS011;10933;50.754;11.508;2023-05-21T06:18:22;20.63;;;19.42;;
21543;SDS011;10933;50.754;11.508;2023-05-21T06:20:49;20.15;;;18.92;;
21543;SDS011;10933;50.754;11.508;2023-05-21T06:23:15;19.80;;;18.70;;
21543;SDS011;10933;50.754;11.508;2023-05-21T06:25:41;21.20;;;19.42;;
21543;SDS011;10933;50.754;11.508;2023-05-21T06:28:07;21.10;;;19.45;;
21543;SDS011;10933;50.754;11.508;2023-05-21T06:30:33;20.02;;;19.02;;
21543;SDS011;10933;50.754;11.508;2023-05-21T06:32:59;21.35;;;19.45;;
21543;SDS011;10933;50.754;11.508;2023-05-21T06:35:26;20.73;;;19.55;;
21543;SDS011;10933;50.754;11.508;2023-05-21T06:37:52;21.33;;;19.67;;
21543;SDS011;10933;50.754;11.508;2023-05-21T06:40:18;19.95;;;18.90;;
21543;SDS011;10933;50.754;11.508;2023-05-21T06:42:44;21.25;;;19.95;;
21543;SDS011;10933;50.754;11.508;2023-05-21T06:45:10;20.63;;;19.25;;
21543;SDS011;10933;50.754;11.508;2023-05-21T06:47:37;20.80;;;19.55;;
21543;SDS011;10933;50.754;11.508;2023-05-21T06:50:03;20.25;;;19.25;;
21543;SDS011;10933;50.754;11.508;2023-05-21T06:52:29;20.60;;;19.60;;
21543;SDS011;10933;50.754;11.508;2023-05-21T06:54:56;19.35;;;18.40;;
21543;SDS011;10933;50.754;11.508;2023-05-21T06:57:22;19.88;;;18.60;;
21543;SDS011;10933;50.754;11.508;2023-05-21T06:59:48;19.35;;;18.27;;
21543;SDS011;10933;50.754;11.508;2023-05-21T07:02:14;18.80;;;17.90;;
21543;SDS011;10933;50.754;11.508;2023-05-21T07:04:40;20.52;;;19.15;;
21543;SDS011;10933;50.754;11.508;2023-05-21T07:07:07;19.67;;;18.65;;
21543;SDS011;10933;50.754;11.508;2023-05-21T07:09:33;19.73;;;18.42;;
21543;SDS011;10933;50.754;11.508;2023-05-21T07:11:59;19.15;;;18.17;;
21543;SDS011;10933;50.754;11.508;2023-05-21T07:14:26;19.15;;;18.25;;
21543;SDS011;10933;50.754;11.508;2023-05-21T07:16:52;18.30;;;17.15;;
21543;SDS011;10933;50.754;11.508;2023-05-21T07:19:18;17.65;;;16.58;;
21543;SDS011;10933;50.754;11.508;2023-05-21T07:21:45;18.33;;;17.15;;
21543;SDS011;10933;50.754;11.508;2023-05-21T07:24:11;18.65;;;17.73;;
21543;SDS011;10933;50.754;11.508;2023-05-21T07:26:37;18.48;;;17.40;;
21543;SDS011;10933;50.754;11.508;2023-05-21T07:29:04;17.65;;;16.85;;
21543;SDS011;10933;50.754;11.508;2023-05-21T07:31:30;18.10;;;16.90;;
21543;SDS011;10933;50.754;11.508;2023-05-21T07:33:56;17.92;;;16.73;;
21543;SDS011;10933;50.754;11.508;2023-05-21T07:36:22;17.73;;;16.67;;
21543;SDS011;10933;50.754;11.508;2023-05-21T07:38:49;18.95;;;17.42;;
21543;SDS011;10933;50.754;11.508;2023-05-21T07:41:16;18.17;;;17.20;;
21543;SDS011;10933;50.754;11.508;2023-05-21T07:43:43;17.38;;;16.50;;
21543;SDS011;10933;50.754;11.508;2023-05-21T07:46:09;17.83;;;16.73;;
21543;SDS011;10933;50.754;11.508;2023-05-21T07:48:35;17.30;;;16.23;;
21543;SDS011;10933;50.754;11.508;2023-05-21T07:51:01;17.70;;;16.90;;
21543;SDS011;10933;50.754;11.508;2023-05-21T07:53:28;17.63;;;16.75;;
21543;SDS011;10933;50.754;11.508;2023-05-21T07:55:56;18.25;;;17.25;;
21543;SDS011;10933;50.754;11.508;2023-05-21T07:58:25;17.02;;;16.02;;
21543;SDS011;10933;50.754;11.508;2023-05-21T08:00:51;15.98;;;15.18;;
21543;SDS011;10933;50.754;11.508;2023-05-21T08:03:18;17.02;;;16.23;;
21543;SDS011;10933;50.754;11.508;2023-05-21T08:05:44;17.58;;;16.23;;
21543;SDS011;10933;50.754;11.508;2023-05-21T08:08:15;16.90;;;15.90;;
21543;SDS011;10933;50.754;11.508;2023-05-21T08:10:46;17.52;;;16.35;;
21543;SDS011;10933;50.754;11.508;2023-05-21T08:13:12;18.00;;;16.85;;
21543;SDS011;10933;50.754;11.508;2023-05-21T08:15:39;17.75;;;16.85;;
21543;SDS011;10933;50.754;11.508;2023-05-21T08:18:05;16.88;;;15.68;;
21543;SDS011;10933;50.754;11.508;2023-05-21T08:20:32;16.27;;;15.18;;
21543;SDS011;10933;50.754;11.508;2023-05-21T08:22:58;17.35;;;16.23;;
21543;SDS011;10933;50.754;11.508;2023-05-21T08:25:25;16.63;;;15.45;;
21543;SDS011;10933;50.754;11.508;2023-05-21T08:27:51;16.73;;;15.82;;
21543;SDS011;10933;50.754;11.508;2023-05-21T08:30:17;15.07;;;14.18;;
21543;SDS011;10933;50.754;11.508;2023-05-21T08:32:44;15.45;;;14.55;;
21543;SDS011;10933;50.754;11.508;2023-05-21T08:35:11;15.77;;;14.85;;
21543;SDS011;10933;50.754;11.508;2023-05-21T08:37:37;15.55;;;14.43;;
21543;SDS011;10933;50.754;11.508;2023-05-21T08:40:04;15.25;;;14.27;;
21543;SDS011;10933;50.754;11.508;2023-05-21T08:42:49;16.42;;;15.48;;
21543;SDS011;10933;50.754;11.508;2023-05-21T08:45:21;15.43;;;14.50;;
21543;SDS011;10933;50.754;11.508;2023-05-21T08:47:52;15.77;;;14.73;;
21543;SDS011;10933;50.754;11.508;2023-05-21T08:52:51;14.80;;;14.10;;
21543;SDS011;10933;50.754;11.508;2023-05-21T08:55:19;14.57;;;13.38;;
21543;SDS011;10933;50.754;11.508;2023-05-21T08:57:47;14.15;;;13.25;;
21543;SDS011;10933;50.754;11.508;2023-05-21T09:00:14;14.15;;;13.05;;
21543;SDS011;10933;50.754;11.508;2023-05-21T09:02:41;14.38;;;13.55;;
21543;SDS011;10933;50.754;11.508;2023-05-21T09:05:08;15.95;;;14.63;;
21543;SDS011;10933;50.754;11.508;2023-05-21T09:07:42;13.13;;;12.52;;
21543;SDS011;10933;50.754;11.508;2023-05-21T09:10:25;12.85;;;12.25;;
21543;SDS011;10933;50.754;11.508;2023-05-21T09:12:59;13.07;;;12.27;;
21543;SDS011;10933;50.754;11.508;2023-05-21T09:15:26;12.88;;;12.25;;
21543;SDS011;10933;50.754;11.508;2023-05-21T09:17:52;12.15;;;11.40;;
21543;SDS011;10933;50.754;11.508;2023-05-21T09:20:23;12.05;;;11.32;;
21543;SDS011;10933;50.754;11.508;2023-05-21T09:22:51;11.60;;;11.10;;
21543;SDS011;10933;50.754;11.508;2023-05-21T09:25:19;12.40;;;11.80;;
21543;SDS011;10933;50.754;11.508;2023-05-21T09:27:56;12.73;;;12.15;;
21543;SDS011;10933;50.754;11.508;2023-05-21T09:30:23;12.10;;;11.40;;
21543;SDS011;10933;50.754;11.508;2023-05-21T09:32:52;11.65;;;11.15;;
21543;SDS011;10933;50.754;11.508;2023-05-21T09:35:21;11.07;;;10.43;;
21543;SDS011;10933;50.754;11.508;2023-05-21T09:37:47;10.20;;;9.63;;
21543;SDS011;10933;50.754;11.508;2023-05-21T09:40:16;11.95;;;11.18;;
21543;SDS011;10933;50.754;11.508;2023-05-21T09:45:17;10.70;;;9.73;;
21543;SDS011;10933;50.754;11.508;2023-05-21T09:47:48;10.15;;;9.65;;
21543;SDS011;10933;50.754;11.508;2023-05-21T09:50:19;9.93;;;9.27;;
21543;SDS011;10933;50.754;11.508;2023-05-21T09:52:47;10.48;;;9.88;;
21543;SDS011;10933;50.754;11.508;2023-05-21T09:55:16;11.00;;;10.07;;
21543;SDS011;10933;50.754;11.508;2023-05-21T09:57:46;10.15;;;9.63;;
21543;SDS011;10933;50.754;11.508;2023-05-21T10:00:20;10.85;;;10.27;;
21543;SDS011;10933;50.754;11.508;2023-05-21T10:02:55;10.43;;;9.93;;
21543;SDS011;10933;50.754;11.508;2023-05-21T10:05:25;10.10;;;9.48;;
21543;SDS011;10933;50.754;11.508;2023-05-21T10:07:54;10.27;;;9.68;;
21543;SDS011;10933;50.754;11.508;2023-05-21T10:10:22;10.27;;;9.68;;
21543;SDS011;10933;50.754;11.508;2023-05-21T10:12:51;14.80;;;9.35;;
21543;SDS011;10933;50.754;11.508;2023-05-21T10:15:23;9.38;;;8.98;;
21543;SDS011;10933;50.754;11.508;2023-05-21T10:17:51;9.93;;;9.32;;
21543;SDS011;10933;50.754;11.508;2023-05-21T10:20:20;10.43;;;9.57;;
21543;SDS011;10933;50.754;11.508;2023-05-21T10:22:47;9.57;;;9.07;;
21543;SDS011;10933;50.754;11.508;2023-05-21T10:25:15;9.93;;;9.23;;
21543;SDS011;10933;50.754;11.508;2023-05-21T10:27:42;10.48;;;9.82;;
21543;SDS011;10933;50.754;11.508;2023-05-21T10:30:10;9.50;;;8.85;;
21543;SDS011;10933;50.754;11.508;2023-05-21T10:32:36;11.20;;;9.60;;
21543;SDS011;10933;50.754;11.508;2023-05-21T10:35:06;8.90;;;8.27;;
21543;SDS011;10933;50.754;11.508;2023-05-21T10:37:33;8.20;;;7.80;;
21543;SDS011;10933;50.754;11.508;2023-05-21T10:39:59;7.43;;;5.45;;
21543;SDS011;10933;50.754;11.508;2023-05-21T10:45:01;6.10;;;5.60;;
21543;SDS011;10933;50.754;11.508;2023-05-21T10:47:46;6.07;;;5.68;;
21543;SDS011;10933;50.754;11.508;2023-05-21T11:01:55;5.47;;;5.07;;
21543;SDS011;10933;50.754;11.508;2023-05-21T11:04:22;5.93;;;5.63;;
21543;SDS011;10933;50.754;11.508;2023-05-21T11:06:51;5.80;;;5.50;;
21543;SDS011;10933;50.754;11.508;2023-05-21T11:09:17;5.90;;;5.60;;
21543;SDS011;10933;50.754;11.508;2023-05-21T11:11:44;6.30;;;5.80;;
21543;SDS011;10933;50.754;11.508;2023-05-21T11:16:59;6.30;;;5.90;;
21543;SDS011;10933;50.754;11.508;2023-05-21T11:19:41;6.00;;;5.60;;
21543;SDS011;10933;50.754;11.508;2023-05-21T11:22:23;5.72;;;5.43;;
21543;SDS011;10933;50.754;11.508;2023-05-21T11:24:51;7.50;;;6.00;;
21543;SDS011;10933;50.754;11.508;2023-05-21T11:27:39;5.90;;;5.50;;
21543;SDS011;10933;50.754;11.508;2023-05-21T11:32:39;6.00;;;5.55;;
21543;SDS011;10933;50.754;11.508;2023-05-21T11:38:13;5.90;;;5.60;;
21543;SDS011;10933;50.754;11.508;2023-05-21T11:41:00;5.72;;;5.43;;
21543;SDS011;10933;50.754;11.508;2023-05-21T11:43:28;6.05;;;5.75;;
21543;SDS011;10933;50.754;11.508;2023-05-21T11:45:54;5.78;;;5.47;;
21543;SDS011;10933;50.754;11.508;2023-05-21T11:48:24;6.45;;;5.93;;
21543;SDS011;10933;50.754;11.508;2023-05-21T11:50:50;5.63;;;5.25;;
21543;SDS011;10933;50.754;11.508;2023-05-21T11:53:17;5.90;;;5.60;;
21543;SDS011;10933;50.754;11.508;2023-05-21T11:55:43;5.45;;;5.15;;
21543;SDS011;10933;50.754;11.508;2023-05-21T11:58:12;5.78;;;5.38;;
21543;SDS011;10933;50.754;11.508;2023-05-21T12:00:40;5.63;;;4.85;;
21543;SDS011;10933;50.754;11.508;2023-05-21T12:03:06;5.50;;;5.20;;
21543;SDS011;10933;50.754;11.508;2023-05-21T12:05:43;6.80;;;5.03;;
21543;SDS011;10933;50.754;11.508;2023-05-21T12:08:20;5.30;;;5.00;;
21543;SDS011;10933;50.754;11.508;2023-05-21T12:10:53;5.38;;;5.07;;
21543;SDS011;10933;50.754;11.508;2023-05-21T12:13:22;5.55;;;5.30;;
21543;SDS011;10933;50.754;11.508;2023-05-21T12:15:50;5.43;;;5.05;;
21543;SDS011;10933;50.754;11.508;2023-05-21T12:18:18;5.57;;;5.18;;
21543;SDS011;10933;50.754;11.508;2023-05-21T12:20:45;15.90;;;4.97;;
21543;SDS011;10933;50.754;11.508;2023-05-21T12:23:23;5.70;;;5.20;;
21543;SDS011;10933;50.754;11.508;2023-05-21T12:25:49;5.85;;;5.13;;
21543;SDS011;10933;50.754;11.508;2023-05-21T12:28:17;7.03;;;4.38;;
21543;SDS011;10933;50.754;11.508;2023-05-21T12:30:48;4.88;;;4.57;;
21543;SDS011;10933;50.754;11.508;2023-05-21T12:33:15;4.60;;;4.30;;
21543;SDS011;10933;50.754;11.508;2023-05-21T12:35:45;4.95;;;4.75;;
21543;SDS011;10933;50.754;11.508;2023-05-21T12:38:13;5.15;;;4.85;;
21543;SDS011;10933;50.754;11.508;2023-05-21T12:40:40;4.80;;;4.55;;
21543;SDS011;10933;50.754;11.508;2023-05-21T12:43:08;4.80;;;4.50;;
21543;SDS011;10933;50.754;11.508;2023-05-21T12:45:34;4.65;;;4.35;;
21543;SDS011;10933;50.754;11.508;2023-05-21T12:48:05;7.38;;;4.53;;
21543;SDS011;10933;50.754;11.508;2023-05-21T12:50:32;4.90;;;4.53;;
21543;SDS011;10933;50.754;11.508;2023-05-21T12:52:59;4.53;;;4.32;;
21543;SDS011;10933;50.754;11.508;2023-05-21T12:55:25;5.18;;;4.80;;
21543;SDS011;10933;50.754;11.508;2023-05-21T12:58:04;5.05;;;4.60;;
21543;SDS011;10933;50.754;11.508;2023-05-21T13:00:32;4.50;;;4.20;;
21543;SDS011;10933;50.754;11.508;2023-05-21T13:02:58;5.07;;;4.78;;
21543;SDS011;10933;50.754;11.508;2023-05-21T13:05:28;6.32;;;4.43;;
21543;SDS011;10933;50.754;11.508;2023-05-21T13:07:54;5.32;;;5.03;;
21543;SDS011;10933;50.754;11.508;2023-05-21T13:10:20;5.60;;;5.20;;
21543;SDS011;10933;50.754;11.508;2023-05-21T13:12:46;5.97;;;4.88;;
21543;SDS011;10933;50.754;11.508;2023-05-21T13:15:12;5.20;;;4.90;;
21543;SDS011;10933;50.754;11.508;2023-05-21T13:17:39;5.10;;;4.90;;
21543;SDS011;10933;50.754;11.508;2023-05-21T13:20:06;4.75;;;4.55;;
21543;SDS011;10933;50.754;11.508;2023-05-21T13:22:40;5.18;;;4.90;;
21543;SDS011;10933;50.754;11.508;2023-05-21T13:25:10;4.00;;;3.80;;
21543;SDS011;10933;50.754;11.508;2023-05-21T13:27:42;5.00;;;4.30;;
21543;SDS011;10933;50.754;11.508;2023-05-21T13:30:09;5.93;;;4.07;;
21543;SDS011;10933;50.754;11.508;2023-05-21T13:32:35;4.80;;;4.50;;
21543;SDS011;10933;50.754;11.508;2023-05-21T13:35:02;5.28;;;4.93;;
21543;SDS011;10933;50.754;11.508;2023-05-21T13:37:29;4.47;;;4.28;;
21543;SDS011;10933;50.754;11.508;2023-05-21T13:39:55;4.50;;;4.30;;
21543;SDS011;10933;50.754;11.508;2023-05-21T13:42:22;4.60;;;4.35;;
21543;SDS011;10933;50.754;11.508;2023-05-21T13:44:48;4.60;;;4.30;;
21543;SDS011;10933;50.754;11.508;2023-05-21T13:47:14;5.43;;;4.35;;
21543;SDS011;10933;50.754;11.508;2023-05-21T13:49:40;5.35;;;5.05;;
21543;SDS011;10933;50.754;11.508;2023-05-21T13:52:07;5.75;;;5.45;;
21543;SDS011;10933;50.754;11.508;2023-05-21T13:54:34;5.78;;;5.38;;
21543;SDS011;10933;50.754;11.508;2023-05-21T13:57:01;5.38;;;5.07;;
21543;SDS011;10933;50.754;11.508;2023-05-21T13:59:27;5.53;;;5.05;;
21543;SDS011;10933;50.754;11.508;2023-05-21T14:01:54;5.20;;;4.90;;
21543;SDS011;10933;50.754;11.508;2023-05-21T14:04:21;5.57;;;5.05;;
21543;SDS011;10933;50.754;11.508;2023-05-21T14:06:48;5.28;;;4.90;;
21543;SDS011;10933;50.754;11.508;2023-05-21T14:09:14;5.25;;;4.85;;
21543;SDS011;10933;50.754;11.508;2023-05-21T14:11:40;5.25;;;4.95;;
21543;SDS011;10933;50.754;11.508;2023-05-21T14:14:07;4.95;;;4.68;;
21543;SDS011;10933;50.754;11.508;2023-05-21T14:16:33;4.90;;;4.70;;
21543;SDS011;10933;50.754;11.508;2023-05-21T14:18:59;5.30;;;4.97;;
21543;SDS011;10933;50.754;11.508;2023-05-21T14:21:25;5.43;;;4.93;;
21543;SDS011;10933;50.754;11.508;2023-05-21T14:23:51;5.75;;;5.35;;
21543;SDS011;10933;50.754;11.508;2023-05-21T14:26:17;5.40;;;5.20;;
21543;SDS011;10933;50.754;11.508;2023-05-21T14:28:44;6.32;;;5.93;;
21543;SDS011;10933;50.754;11.508;2023-05-21T14:31:10;5.25;;;4.97;;
21543;SDS011;10933;50.754;11.508;2023-05-21T14:33:37;5.10;;;4.90;;
21543;SDS011;10933;50.754;11.508;2023-05-21T14:36:06;5.63;;;5.32;;
21543;SDS011;10933;50.754;11.508;2023-05-21T14:38:32;5.68;;;5.38;;
21543;SDS011;10933;50.754;11.508;2023-05-21T14:40:58;5.82;;;5.35;;
21543;SDS011;10933;50.754;11.508;2023-05-21T14:43:24;5.70;;;5.40;;
21543;SDS011;10933;50.754;11.508;2023-05-21T14:45:50;5.35;;;5.15;;
21543;SDS011;10933;50.754;11.508;2023-05-21T14:48:16;5.85;;;5.45;;
21543;SDS011;10933;50.754;11.508;2023-05-21T14:50:46;5.93;;;5.65;;